Time;durP1;ratioP1;P1;durP2;ratioP2;P2;SDS_P1;SDS_P2;PMS_P1;PMS_P2;Temp;Humidity;BMP_temperature;BMP_pressure;BME280_temperature;BME280_humidity;BME280_pressure;Samples;Min_cycle;Max_cycle;Signal;HPM_P1;HPM_P2
2023/01/10 00:01:36;;;;;;;9.30;2.60;;;10.30;56.80;;;;;;5057709;28;20543;-46
2023/01/10 00:04:03;;;;;;;6.10;1.80;;;10.30;56.80;;;;;;5060723;28;20060;-46
2023/01/10 00:06:31;;;;;;;7.03;2.45;;;10.30;56.90;;;;;;5060190;28;20045;-46
2023/01/10 00:08:59;;;;;;;7.15;1.95;;;10.30;56.90;;;;;;5059639;28;20055;-50
2023/01/10 00:14:11;;;;;;;9.50;2.50;;;10.30;57.00;;;;;;5044390;28;20068;-47
2023/01/10 00:16:39;;;;;;;7.78;2.13;;;10.30;56.90;;;;;;5037879;28;20052;-46
2023/01/10 00:19:07;;;;;;;11.35;2.50;;;10.20;56.90;;;;;;5042206;28;21716;-44
2023/01/10 00:21:34;;;;;;;4.75;1.67;;;10.30;56.90;;;;;;5043619;28;20064;-48
2023/01/10 00:24:15;;;;;;;8.95;1.85;;;10.30;56.90;;;;;;5037742;28;20060;-47
2023/01/10 00:26:46;;;;;;;7.03;1.90;;;10.30;57.00;;;;;;5042176;28;20049;-47
2023/01/10 00:29:13;;;;;;;6.13;2.30;;;10.30;56.90;;;;;;5040216;28;20056;-44
2023/01/10 00:31:41;;;;;;;9.38;2.17;;;10.30;56.70;;;;;;5043250;28;20071;-48
2023/01/10 00:34:08;;;;;;;9.45;2.05;;;10.30;56.80;;;;;;5045719;28;20057;-49
2023/01/10 00:36:35;;;;;;;8.65;2.05;;;10.20;56.90;;;;;;5042385;28;20517;-48
2023/01/10 00:39:09;;;;;;;10.65;2.58;;;10.20;56.80;;;;;;5046262;28;20061;-46
2023/01/10 00:44:21;;;;;;;8.70;1.95;;;10.20;56.70;;;;;;5048911;28;20056;-46
2023/01/10 00:46:49;;;;;;;10.02;2.08;;;10.30;56.70;;;;;;5040983;28;20049;-44
2023/01/10 00:49:16;;;;;;;12.85;2.67;;;10.30;56.70;;;;;;5046746;28;20045;-47
2023/01/10 00:51:44;;;;;;;6.22;1.90;;;10.30;56.70;;;;;;5040837;28;20049;-44
2023/01/10 00:54:14;;;;;;;8.32;1.92;;;10.20;56.60;;;;;;5046406;28;20064;-45
2023/01/10 00:56:42;;;;;;;5.25;1.70;;;10.20;56.50;;;;;;5052224;28;20519;-46
2023/01/10 00:59:09;;;;;;;6.45;2.13;;;10.20;56.50;;;;;;5037332;28;20060;-46
2023/01/10 01:01:36;;;;;;;5.65;1.90;;;10.30;56.50;;;;;;5036478;28;20064;-44
2023/01/10 01:04:04;;;;;;;7.65;1.90;;;10.20;56.50;;;;;;5041415;28;20057;-44
2023/01/10 01:06:31;;;;;;;11.07;2.20;;;10.30;56.90;;;;;;5041673;28;20045;-44
2023/01/10 01:08:58;;;;;;;11.07;2.22;;;10.20;56.40;;;;;;5034686;28;20520;-45
2023/01/10 01:11:27;;;;;;;7.13;1.90;;;10.30;56.40;;;;;;5039433;28;20053;-50
2023/01/10 01:13:54;;;;;;;9.25;2.30;;;10.30;56.40;;;;;;5040241;28;20052;-47
2023/01/10 01:16:21;;;;;;;13.95;2.42;;;10.30;56.40;;;;;;5037401;28;20654;-44
2023/01/10 01:18:49;;;;;;;8.82;1.80;;;10.30;56.30;;;;;;5053106;28;20056;-43
2023/01/10 01:21:16;;;;;;;10.50;2.08;;;10.20;56.20;;;;;;5052218;28;20409;-44
2023/01/10 01:23:43;;;;;;;8.10;1.90;;;10.30;56.20;;;;;;5050177;28;20614;-46
2023/01/10 01:26:10;;;;;;;9.23;2.33;;;10.20;56.30;;;;;;5042918;28;20063;-44
2023/01/10 01:28:39;;;;;;;13.02;2.35;;;10.30;56.50;;;;;;5043196;28;20063;-44
2023/01/10 01:31:08;;;;;;;9.43;1.83;;;10.30;56.30;;;;;;5047129;28;20057;-49
2023/01/10 01:33:35;;;;;;;9.02;1.80;;;10.20;56.40;;;;;;5053423;28;20064;-45
2023/01/10 01:36:02;;;;;;;8.20;2.30;;;10.30;56.30;;;;;;5043867;28;20060;-49
2023/01/10 01:38:30;;;;;;;9.60;2.10;;;10.30;56.40;;;;;;5057597;28;20075;-47
2023/01/10 01:40:57;;;;;;;7.40;1.80;;;10.20;56.30;;;;;;5050856;28;20060;-46
2023/01/10 01:43:26;;;;;;;14.23;2.28;;;10.30;56.40;;;;;;5042790;28;20646;-47
2023/01/10 01:45:55;;;;;;;10.02;2.63;;;10.20;56.30;;;;;;5040678;28;20052;-45
2023/01/10 01:48:33;;;;;;;6.93;1.73;;;10.30;56.40;;;;;;5045647;28;20061;-49
2023/01/10 01:51:07;;;;;;;18.05;2.17;;;10.30;56.30;;;;;;5049815;28;20057;-45
2023/01/10 01:53:38;;;;;;;;;;;10.30;56.20;;;;;;5048914;28;20060;-47
2023/01/10 01:56:09;;;;;;;9.63;2.55;;;10.30;56.20;;;;;;5041819;28;19928;-47
2023/01/10 01:58:43;;;;;;;8.30;1.85;;;10.30;56.10;;;;;;5035628;28;20053;-45
2023/01/10 02:01:12;;;;;;;12.77;2.53;;;10.30;56.10;;;;;;5047549;28;20062;-46
2023/01/10 02:03:40;;;;;;;9.65;2.10;;;10.30;56.10;;;;;;5041056;28;20057;-45
2023/01/10 02:06:08;;;;;;;15.05;2.53;;;10.30;56.00;;;;;;5032285;28;20041;-45
2023/01/10 02:08:36;;;;;;;14.57;2.50;;;10.30;55.90;;;;;;5039535;28;20052;-45
2023/01/10 02:11:08;;;;;;;11.90;2.90;;;10.30;56.00;;;;;;5034504;28;20400;-46
2023/01/10 02:13:40;;;;;;;7.95;2.25;;;10.30;55.90;;;;;;5042441;28;20523;-46
2023/01/10 02:16:08;;;;;;;9.25;2.13;;;10.30;55.90;;;;;;5053889;28;20053;-46
2023/01/10 02:18:39;;;;;;;9.45;2.00;;;10.30;55.90;;;;;;5055943;28;20056;-46
2023/01/10 02:21:38;;;;;;;9.40;1.92;;;10.30;55.90;;;;;;5057945;28;20052;-45
2023/01/10 02:24:39;;;;;;;9.52;2.08;;;10.30;55.80;;;;;;5027542;28;20059;-46
2023/01/10 02:27:24;;;;;;;13.75;2.50;;;10.30;55.80;;;;;;5012028;28;20047;-45
2023/01/10 02:30:30;;;;;;;9.57;2.25;;;10.30;55.70;;;;;;4961783;28;20055;-45
2023/01/10 02:33:03;;;;;;;9.45;2.20;;;10.30;55.60;;;;;;4951803;28;20069;-47
2023/01/10 02:35:55;;;;;;;10.23;2.63;;;10.30;55.50;;;;;;4965917;28;20058;-49
2023/01/10 02:38:32;;;;;;;11.80;2.70;;;10.30;55.50;;;;;;4961784;28;20058;-48
2023/01/10 02:41:09;;;;;;;15.75;2.88;;;10.30;55.60;;;;;;4959916;28;20414;-44
2023/01/10 02:43:44;;;;;;;13.00;3.00;;;10.30;55.60;;;;;;4960145;28;20494;-45
2023/01/10 02:46:16;;;;;;;13.90;2.97;;;10.30;55.50;;;;;;4960065;28;20376;-46
2023/01/10 02:48:45;;;;;;;13.38;2.67;;;10.20;55.50;;;;;;4961091;28;20046;-45
2023/01/10 02:51:19;;;;;;;14.05;2.90;;;10.30;55.50;;;;;;4962831;28;20407;-45
2023/01/10 02:53:49;;;;;;;16.98;3.10;;;10.20;55.60;;;;;;4960104;28;20054;-50
2023/01/10 02:56:41;;;;;;;17.40;3.20;;;10.30;55.70;;;;;;4959762;28;20555;-48
2023/01/10 02:59:41;;;;;;;11.73;3.00;;;10.30;55.40;;;;;;4954566;28;20050;-46
2023/01/10 03:02:19;;;;;;;16.33;3.03;;;10.20;55.40;;;;;;4957008;28;20055;-47
2023/01/10 03:04:57;;;;;;;14.52;3.13;;;10.20;55.40;;;;;;4951296;28;21745;-46
2023/01/10 03:07:31;;;;;;;13.35;3.38;;;10.20;55.40;;;;;;4956200;28;20062;-44
2023/01/10 03:10:03;;;;;;;10.43;2.38;;;10.20;55.40;;;;;;4960002;28;20490;-44
2023/01/10 03:12:39;;;;;;;13.77;2.70;;;10.20;55.50;;;;;;4957240;28;20054;-45
2023/01/10 03:15:08;;;;;;;14.85;3.25;;;10.20;55.40;;;;;;4960959;28;20063;-46
2023/01/10 03:17:37;;;;;;;11.50;2.85;;;10.20;55.40;;;;;;4960128;28;20046;-45
2023/01/10 03:20:07;;;;;;;22.52;3.55;;;10.20;55.30;;;;;;4960782;28;20061;-49
2023/01/10 03:22:39;;;;;;;15.90;3.22;;;10.20;55.40;;;;;;4959181;28;20057;-43
2023/01/10 03:25:11;;;;;;;10.43;2.80;;;10.20;55.20;;;;;;4961015;28;20066;-46
2023/01/10 03:27:47;;;;;;;13.05;2.40;;;10.20;55.20;;;;;;4958543;28;20051;-47
2023/01/10 03:30:23;;;;;;;13.73;3.00;;;10.20;55.20;;;;;;4959953;28;20502;-49
2023/01/10 03:32:50;;;;;;;15.93;4.40;;;10.20;55.10;;;;;;4960359;28;20055;-49
2023/01/10 03:35:22;;;;;;;13.80;2.88;;;10.20;55.30;;;;;;4958202;28;20050;-47
2023/01/10 03:37:55;;;;;;;13.38;2.72;;;10.20;55.30;;;;;;4961464;28;20054;-47
2023/01/10 03:40:30;;;;;;;14.10;2.65;;;10.20;55.30;;;;;;4958394;28;20055;-47
2023/01/10 03:45:54;;;;;;;15.25;2.90;;;10.20;55.10;;;;;;4966347;28;20058;-49
2023/01/10 03:48:26;;;;;;;10.63;2.70;;;10.20;55.00;;;;;;4959865;28;20411;-49
2023/01/10 03:50:56;;;;;;;11.27;2.40;;;10.20;54.90;;;;;;4959641;28;20058;-49
2023/01/10 03:53:23;;;;;;;12.18;2.90;;;10.20;54.90;;;;;;4960959;28;20062;-44
2023/01/10 03:55:50;;;;;;;15.45;2.95;;;10.20;54.90;;;;;;4960490;28;20065;-47
2023/01/10 03:58:20;;;;;;;15.85;2.90;;;10.20;54.90;;;;;;4958857;28;20483;-45
2023/01/10 04:00:47;;;;;;;12.25;2.75;;;10.20;54.90;;;;;;4960625;28;20054;-47
2023/01/10 04:03:15;;;;;;;14.95;3.03;;;10.20;54.90;;;;;;4960846;28;20428;-42
2023/01/10 04:05:43;;;;;;;21.92;4.20;;;10.20;54.90;;;;;;4959001;28;20051;-47
2023/01/10 04:08:11;;;;;;;18.23;3.22;;;10.20;54.90;;;;;;4960236;28;20057;-48
2023/01/10 04:10:39;;;;;;;14.30;3.05;;;10.20;55.10;;;;;;4958402;28;20055;-50
2023/01/10 04:13:06;;;;;;;17.00;3.55;;;10.20;55.10;;;;;;4958442;28;20059;-48
2023/01/10 04:15:33;;;;;;;18.92;3.00;;;10.20;55.00;;;;;;4960841;28;20055;-44
2023/01/10 04:18:00;;;;;;;17.08;3.00;;;10.20;55.00;;;;;;4960325;28;20059;-45
2023/01/10 04:20:27;;;;;;;11.80;2.50;;;10.20;55.10;;;;;;4959126;28;20051;-46
2023/01/10 04:22:55;;;;;;;12.32;2.50;;;10.20;55.00;;;;;;4960190;28;20051;-44
2023/01/10 04:25:24;;;;;;;15.60;2.88;;;10.20;55.00;;;;;;4958486;28;20055;-44
2023/01/10 04:27:52;;;;;;;9.07;2.30;;;10.20;55.00;;;;;;4957314;28;20066;-46
2023/01/10 04:30:19;;;;;;;15.80;2.40;;;10.20;54.90;;;;;;4958728;28;20055;-45
2023/01/10 04:32:47;;;;;;;15.13;2.60;;;10.20;54.80;;;;;;4959289;28;20047;-46
2023/01/10 04:35:14;;;;;;;11.43;2.83;;;10.30;54.90;;;;;;4960359;28;20055;-46
2023/01/10 04:37:42;;;;;;;14.70;2.40;;;10.20;54.70;;;;;;4963542;28;20058;-46
2023/01/10 04:40:11;;;;;;;10.98;2.85;;;10.30;54.80;;;;;;4963435;28;20490;-46
2023/01/10 04:42:40;;;;;;;19.42;4.60;;;10.30;54.70;;;;;;4963616;28;20325;-49
2023/01/10 04:45:10;;;;;;;18.67;3.13;;;10.20;54.70;;;;;;4960081;28;20058;-49
2023/01/10 04:47:37;;;;;;;17.70;3.10;;;10.20;54.60;;;;;;4963120;28;20498;-45
2023/01/10 04:50:05;;;;;;;11.68;2.42;;;10.20;54.50;;;;;;4962296;28;20117;-46
2023/01/10 04:52:33;;;;;;;17.83;3.13;;;10.20;54.40;;;;;;4965730;28;20479;-48
2023/01/10 04:55:00;;;;;;;16.42;2.83;;;10.30;54.40;;;;;;4961907;28;20062;-44
2023/01/10 04:57:27;;;;;;;12.05;3.03;;;10.20;54.30;;;;;;4961621;28;20062;-46
2023/01/10 04:59:56;;;;;;;16.77;2.75;;;10.20;54.30;;;;;;4960927;28;20585;-45
2023/01/10 05:02:23;;;;;;;17.90;2.95;;;10.20;54.50;;;;;;4964048;28;20062;-45
2023/01/10 05:04:50;;;;;;;14.77;2.75;;;10.20;54.70;;;;;;4963133;28;20051;-47
2023/01/10 05:07:17;;;;;;;14.48;3.05;;;10.20;54.50;;;;;;4961159;28;20055;-45
2023/01/10 05:09:44;;;;;;;14.05;2.53;;;10.10;54.40;;;;;;4961027;28;20054;-47
2023/01/10 05:12:12;;;;;;;17.80;3.00;;;10.10;54.30;;;;;;4959624;28;20074;-45
2023/01/10 05:14:39;;;;;;;15.98;2.88;;;10.10;54.20;;;;;;4951671;28;20079;-46
2023/01/10 05:17:08;;;;;;;11.38;2.53;;;10.10;54.20;;;;;;4940180;28;20055;-46
2023/01/10 05:19:35;;;;;;;17.98;3.50;;;10.10;54.30;;;;;;4940604;28;20499;-50
2023/01/10 05:22:02;;;;;;;15.88;2.58;;;10.00;54.30;;;;;;4952099;28;20082;-46
2023/01/10 05:24:29;;;;;;;15.60;2.65;;;10.00;54.20;;;;;;4949530;28;20089;-46
2023/01/10 05:26:56;;;;;;;14.23;2.50;;;10.00;54.20;;;;;;4976648;28;20058;-48
2023/01/10 05:29:24;;;;;;;15.80;2.63;;;10.00;54.10;;;;;;4945695;28;20502;-45
2023/01/10 05:31:52;;;;;;;12.50;2.67;;;9.90;54.20;;;;;;4941342;28;20395;-46
2023/01/10 05:34:21;;;;;;;19.42;3.15;;;9.90;54.20;;;;;;4944149;28;20512;-45
2023/01/10 05:36:48;;;;;;;14.93;2.38;;;9.90;54.10;;;;;;4943567;28;20066;-46
2023/01/10 05:39:15;;;;;;;15.63;2.70;;;9.90;54.00;;;;;;4951591;28;20063;-47
2023/01/10 05:41:43;;;;;;;14.38;2.58;;;9.90;53.90;;;;;;4942860;28;20054;-46
2023/01/10 05:44:10;;;;;;;12.93;2.53;;;9.80;53.90;;;;;;4948801;28;20061;-45
2023/01/10 05:46:37;;;;;;;14.77;3.03;;;9.80;53.80;;;;;;4946903;28;20415;-48
2023/01/10 05:49:05;;;;;;;9.98;2.42;;;9.80;53.70;;;;;;4949544;28;20058;-45
2023/01/10 05:51:33;;;;;;;8.38;2.20;;;9.80;53.70;;;;;;4945775;28;20043;-48
2023/01/10 05:54:00;;;;;;;12.15;2.65;;;9.80;53.70;;;;;;4953773;28;20499;-43
2023/01/10 05:56:28;;;;;;;13.68;2.75;;;9.70;53.50;;;;;;4950611;28;20057;-42
2023/01/10 05:58:55;;;;;;;8.23;2.47;;;9.70;53.50;;;;;;4977630;28;20063;-42
2023/01/10 06:01:22;;;;;;;17.38;2.72;;;9.70;53.50;;;;;;4948891;28;20062;-46
2023/01/10 06:03:49;;;;;;;10.77;2.03;;;9.70;53.50;;;;;;4950087;28;20082;-47
2023/01/10 06:06:17;;;;;;;16.85;2.85;;;9.60;53.70;;;;;;4954223;28;20051;-46
2023/01/10 06:08:45;;;;;;;15.95;2.45;;;9.60;54.00;;;;;;4982527;28;20499;-47
2023/01/10 06:11:13;;;;;;;19.20;3.03;;;9.60;54.00;;;;;;4952517;28;20479;-45
2023/01/10 06:13:40;;;;;;;13.02;2.30;;;9.50;54.10;;;;;;4953533;28;20070;-46
2023/01/10 06:16:07;;;;;;;13.90;2.80;;;9.50;54.10;;;;;;4960387;28;20058;-46
2023/01/10 06:18:34;;;;;;;16.88;2.85;;;9.50;53.90;;;;;;4962480;28;20077;-43
2023/01/10 06:21:02;;;;;;;12.75;2.63;;;9.50;53.90;;;;;;4961801;28;20051;-44
2023/01/10 06:23:29;;;;;;;17.70;2.92;;;9.50;53.90;;;;;;4961262;28;20058;-43
2023/01/10 06:25:58;;;;;;;11.00;2.47;;;9.50;53.90;;;;;;4957408;28;20855;-47
2023/01/10 06:28:25;;;;;;;19.30;2.58;;;9.50;54.00;;;;;;4948846;28;20059;-48
2023/01/10 06:30:52;;;;;;;19.35;3.17;;;9.40;54.20;;;;;;4959327;28;20533;-45
2023/01/10 06:33:19;;;;;;;10.70;2.40;;;9.40;54.20;;;;;;4961096;28;20065;-46
2023/01/10 06:35:47;;;;;;;18.98;2.50;;;9.50;54.10;;;;;;4962258;28;20065;-44
2023/01/10 06:38:14;;;;;;;14.55;2.72;;;9.40;54.30;;;;;;4959153;28;20062;-47
2023/01/10 06:40:41;;;;;;;13.05;2.30;;;9.50;54.60;;;;;;4956244;28;20837;-44
2023/01/10 06:43:10;;;;;;;18.17;2.55;;;9.50;54.50;;;;;;4961093;28;20482;-44
2023/01/10 06:45:37;;;;;;;14.85;3.50;;;9.50;54.40;;;;;;4961086;28;20490;-42
2023/01/10 06:48:05;;;;;;;14.20;2.70;;;9.50;54.30;;;;;;4963378;28;20062;-45
2023/01/10 06:50:32;;;;;;;15.30;2.95;;;9.50;54.30;;;;;;4958184;28;20411;-46
2023/01/10 06:53:01;;;;;;;16.17;3.08;;;9.50;54.40;;;;;;4991418;28;20062;-44
2023/01/10 06:55:29;;;;;;;17.08;2.83;;;9.50;54.50;;;;;;4957502;28;20410;-48
2023/01/10 06:57:57;;;;;;;22.67;3.15;;;9.50;54.70;;;;;;4956888;28;20050;-45
2023/01/10 07:00:27;;;;;;;10.98;2.63;;;9.50;54.50;;;;;;4960964;28;20065;-43
2023/01/10 07:02:55;;;;;;;13.20;2.65;;;9.50;54.70;;;;;;4991296;28;20071;-48
2023/01/10 07:05:22;;;;;;;13.60;2.40;;;9.50;54.50;;;;;;4956049;28;20478;-45
2023/01/10 07:07:49;;;;;;;12.63;2.85;;;9.50;54.30;;;;;;4961301;28;20062;-48
2023/01/10 07:10:17;;;;;;;19.30;3.22;;;9.50;54.20;;;;;;4958736;28;20584;-42
2023/01/10 07:12:44;;;;;;;11.23;2.30;;;9.50;54.50;;;;;;4956927;28;20392;-45
2023/01/10 07:15:12;;;;;;;14.77;2.63;;;9.50;54.50;;;;;;4945075;28;20070;-46
2023/01/10 07:17:40;;;;;;;11.55;2.58;;;9.50;54.40;;;;;;4949547;28;20055;-45
2023/01/10 07:20:09;;;;;;;15.80;2.90;;;9.50;54.40;;;;;;4947072;28;20059;-44
2023/01/10 07:22:36;;;;;;;14.65;2.50;;;9.50;54.50;;;;;;4976975;28;20495;-44
2023/01/10 07:25:04;;;;;;;14.32;2.83;;;9.50;54.30;;;;;;4944708;28;20062;-44
2023/01/10 07:27:31;;;;;;;14.48;2.70;;;9.50;54.20;;;;;;4948041;28;20055;-48
2023/01/10 07:29:59;;;;;;;13.65;2.72;;;9.50;54.10;;;;;;4947819;28;20054;-47
2023/01/10 07:32:26;;;;;;;13.80;2.28;;;9.60;54.00;;;;;;4952354;28;20043;-43
2023/01/10 07:34:55;;;;;;;13.40;2.53;;;9.50;53.90;;;;;;4948091;28;20059;-46
2023/01/10 07:37:22;;;;;;;11.75;2.40;;;9.50;53.80;;;;;;4952621;28;20402;-45
2023/01/10 07:39:49;;;;;;;16.13;2.92;;;9.60;53.90;;;;;;4949210;28;20062;-50
2023/01/10 07:42:16;;;;;;;12.70;2.63;;;9.50;53.60;;;;;;4951420;28;20491;-42
2023/01/10 07:44:44;;;;;;;18.00;2.15;;;9.50;53.60;;;;;;4952557;28;20055;-45
2023/01/10 07:47:11;;;;;;;14.80;2.03;;;9.50;53.60;;;;;;4939600;28;20066;-49
2023/01/10 07:49:38;;;;;;;14.52;1.90;;;9.50;53.60;;;;;;4938660;28;20062;-50
2023/01/10 07:52:08;;;;;;;10.88;2.13;;;9.60;53.60;;;;;;4949743;28;20051;-45
2023/01/10 07:54:35;;;;;;;12.38;2.03;;;9.50;54.10;;;;;;4940815;28;20055;-46
2023/01/10 07:57:02;;;;;;;8.10;1.77;;;9.50;53.60;;;;;;4946960;28;20063;-44
2023/01/10 07:59:30;;;;;;;9.90;2.20;;;9.50;53.60;;;;;;4939589;28;20059;-47
2023/01/10 08:01:57;;;;;;;13.57;2.08;;;9.50;53.50;;;;;;4939004;28;20058;-46
2023/01/10 08:04:24;;;;;;;7.25;1.90;;;9.50;53.50;;;;;;4944839;28;20077;-45
2023/01/10 08:06:54;;;;;;;10.75;1.80;;;9.50;53.50;;;;;;4941201;28;20059;-45
2023/01/10 08:09:23;;;;;;;13.10;1.70;;;9.50;53.40;;;;;;4948089;28;20055;-44
2023/01/10 08:11:50;;;;;;;9.15;2.58;;;9.50;53.40;;;;;;4942704;28;20484;-42
2023/01/10 08:14:17;;;;;;;15.23;3.15;;;9.50;53.40;;;;;;4948195;28;20061;-47
2023/01/10 08:16:44;;;;;;;13.52;2.75;;;9.50;53.40;;;;;;4940943;28;20058;-46
2023/01/10 08:19:15;;;;;;;13.30;2.22;;;9.50;53.40;;;;;;4941988;28;20062;-48
2023/01/10 08:21:42;;;;;;;10.05;2.45;;;9.40;53.40;;;;;;4939425;28;20054;-47
2023/01/10 08:24:10;;;;;;;15.15;2.75;;;9.40;53.50;;;;;;4937211;28;20058;-44
2023/01/10 08:26:39;;;;;;;11.00;2.40;;;9.40;53.50;;;;;;4946936;28;20415;-47
2023/01/10 08:29:06;;;;;;;13.43;3.00;;;9.40;53.50;;;;;;4943872;28;20056;-49
2023/01/10 08:31:33;;;;;;;17.17;5.07;;;9.40;53.60;;;;;;4949267;28;20051;-46
2023/01/10 08:34:00;;;;;;;11.77;3.17;;;9.40;53.70;;;;;;4950106;28;20471;-44
2023/01/10 08:36:28;;;;;;;13.50;2.42;;;9.40;53.70;;;;;;4949991;28;20051;-42
2023/01/10 08:38:56;;;;;;;8.00;1.95;;;9.40;53.80;;;;;;4978620;28;20055;-46
2023/01/10 08:41:23;;;;;;;10.38;1.98;;;9.40;53.80;;;;;;4951683;28;20059;-45
2023/01/10 08:43:52;;;;;;;10.80;2.28;;;9.40;53.80;;;;;;4954302;28;20054;-44
2023/01/10 08:46:20;;;;;;;7.65;1.73;;;9.40;53.90;;;;;;4937408;28;20059;-45
2023/01/10 08:48:49;;;;;;;9.23;2.28;;;9.40;53.90;;;;;;4948556;28;20078;-45
2023/01/10 08:51:18;;;;;;;13.25;2.30;;;9.40;53.90;;;;;;4947675;28;20526;-45
2023/01/10 08:53:46;;;;;;;12.50;2.70;;;9.40;54.00;;;;;;4943650;28;20498;-47
2023/01/10 08:56:14;;;;;;;10.48;3.00;;;9.40;54.00;;;;;;4944970;28;20063;-44
2023/01/10 08:58:41;;;;;;;11.90;2.50;;;9.40;54.00;;;;;;4943815;28;20051;-43
2023/01/10 09:01:12;;;;;;;109.55;32.85;;;9.40;54.10;;;;;;4940778;28;20491;-45
2023/01/10 09:03:39;;;;;;;41.63;14.77;;;9.40;54.60;;;;;;4940696;28;20051;-44
2023/01/10 09:06:07;;;;;;;19.60;6.15;;;9.40;54.10;;;;;;4945536;28;20058;-43
2023/01/10 09:08:35;;;;;;;11.48;3.30;;;9.40;54.10;;;;;;4945920;28;20055;-46
2023/01/10 09:11:03;;;;;;;10.68;2.55;;;9.40;54.20;;;;;;4947675;28;20058;-45
2023/01/10 09:13:30;;;;;;;9.75;2.53;;;9.40;54.20;;;;;;4945574;28;20058;-43
2023/01/10 09:15:58;;;;;;;10.20;2.53;;;9.40;54.20;;;;;;4944861;28;20070;-44
2023/01/10 09:18:27;;;;;;;13.52;2.22;;;9.50;54.30;;;;;;4942195;28;20059;-47
2023/01/10 09:20:54;;;;;;;12.80;2.53;;;9.50;54.30;;;;;;4946632;28;20483;-46
2023/01/10 09:23:23;;;;;;;12.77;2.33;;;9.40;54.30;;;;;;4954843;28;20402;-46
2023/01/10 09:25:52;;;;;;;16.80;2.42;;;9.50;54.30;;;;;;4979266;28;20057;-43
2023/01/10 09:28:23;;;;;;;20.85;2.75;;;9.50;54.30;;;;;;4947517;28;20055;-45
2023/01/10 09:30:50;;;;;;;17.05;2.97;;;9.50;54.30;;;;;;4957092;28;20443;-46
2023/01/10 09:33:17;;;;;;;11.88;2.75;;;9.50;54.30;;;;;;4959627;28;20419;-44
2023/01/10 09:35:46;;;;;;;16.92;2.95;;;9.50;54.30;;;;;;4952442;28;20063;-45
2023/01/10 09:38:15;;;;;;;21.05;2.53;;;9.50;54.30;;;;;;4971825;28;20415;-44
2023/01/10 09:41:07;;;;;;;20.38;4.47;;;9.50;54.30;;;;;;4951471;28;20051;-46
2023/01/10 09:43:45;;;;;;;20.95;5.45;;;9.50;54.30;;;;;;4958335;28;20048;-45
2023/01/10 09:46:20;;;;;;;76.20;25.10;;;9.50;54.30;;;;;;4943938;28;20054;-47
2023/01/10 09:48:53;;;;;;;40.67;11.95;;;9.60;54.40;;;;;;4943997;28;20051;-45
2023/01/10 09:51:32;;;;;;;25.80;6.53;;;9.60;54.40;;;;;;4948346;28;20074;-47
2023/01/10 09:54:04;;;;;;;24.85;4.75;;;9.60;54.40;;;;;;4972888;28;20054;-45
2023/01/10 09:56:34;;;;;;;23.70;4.25;;;9.60;54.40;;;;;;4944789;28;20054;-45
2023/01/10 09:59:03;;;;;;;19.95;5.13;;;9.60;54.40;;;;;;4950852;28;20379;-43
2023/01/10 10:01:35;;;;;;;20.38;4.40;;;9.60;54.40;;;;;;4947057;28;20051;-43
2023/01/10 10:04:12;;;;;;;26.05;3.90;;;9.60;54.40;;;;;;4980823;28;20587;-46
2023/01/10 10:06:41;;;;;;;28.70;5.05;;;9.70;54.40;;;;;;4945467;28;20411;-46
2023/01/10 10:09:12;;;;;;;20.75;4.30;;;9.70;54.30;;;;;;4941624;28;20048;-49
2023/01/10 10:12:04;;;;;;;18.10;3.50;;;9.70;54.30;;;;;;4941886;28;20043;-47
2023/01/10 10:14:46;;;;;;;19.83;3.42;;;9.80;54.30;;;;;;4957866;28;20434;-47
2023/01/10 10:17:26;;;;;;;21.83;3.63;;;9.80;54.80;;;;;;4961275;28;20058;-43
2023/01/10 10:20:05;;;;;;;26.25;4.22;;;9.80;54.90;;;;;;4962288;28;20051;-48
2023/01/10 10:22:46;;;;;;;18.02;3.25;;;9.90;54.70;;;;;;4963294;28;20055;-45
2023/01/10 10:25:26;;;;;;;24.73;4.50;;;9.90;54.50;;;;;;4956403;28;20113;-45
2023/01/10 10:28:09;;;;;;;24.02;4.15;;;9.90;54.40;;;;;;4957751;28;20054;-44
2023/01/10 10:30:47;;;;;;;21.15;4.45;;;10.00;54.50;;;;;;4962528;28;20486;-47
2023/01/10 10:33:32;;;;;;;16.83;3.35;;;10.00;54.30;;;;;;4961061;28;20055;-44
2023/01/10 10:36:03;;;;;;;24.15;3.90;;;10.00;54.00;;;;;;4955937;28;20054;-44
2023/01/10 10:38:40;;;;;;;27.08;3.85;;;10.10;54.00;;;;;;4961408;28;20071;-49
2023/01/10 10:41:15;;;;;;;16.90;2.88;;;10.10;54.10;;;;;;4959715;28;20050;-47
2023/01/10 10:43:45;;;;;;;19.23;3.42;;;10.20;54.10;;;;;;4962144;28;20084;-44
2023/01/10 10:46:16;;;;;;;23.23;4.28;;;10.20;54.00;;;;;;4963315;28;20061;-47
2023/01/10 10:48:52;;;;;;;22.35;3.80;;;10.20;53.90;;;;;;4960183;28;20054;-47
2023/01/10 10:51:26;;;;;;;20.50;2.95;;;10.30;54.00;;;;;;4962013;28;20058;-49
2023/01/10 10:53:56;;;;;;;15.30;3.10;;;10.30;54.20;;;;;;4958467;28;20403;-44
2023/01/10 10:56:26;;;;;;;19.08;3.38;;;10.30;54.10;;;;;;4961278;28;20050;-43
2023/01/10 10:58:56;;;;;;;22.77;3.85;;;10.40;54.00;;;;;;4959585;28;20051;-46
2023/01/10 11:01:23;;;;;;;18.88;3.25;;;10.40;54.00;;;;;;4963421;28;20058;-49
2023/01/10 11:03:54;;;;;;;20.40;3.35;;;10.40;53.80;;;;;;4963516;28;20058;-45
2023/01/10 11:06:23;;;;;;;21.27;3.85;;;10.40;53.70;;;;;;4962512;28;20067;-48
2023/01/10 11:08:53;;;;;;;20.58;3.88;;;10.50;53.50;;;;;;4960604;28;20063;-46
2023/01/10 11:11:26;;;;;;;19.05;3.40;;;10.50;53.30;;;;;;4962667;28;20537;-49
2023/01/10 11:13:56;;;;;;;21.00;3.13;;;10.50;53.20;;;;;;4957070;28;20059;-46
2023/01/10 11:16:29;;;;;;;18.58;2.80;;;10.60;53.30;;;;;;4944308;28;20059;-47
2023/01/10 11:19:21;;;;;;;23.63;3.42;;;10.60;53.50;;;;;;4947191;28;20066;-44
2023/01/10 11:21:53;;;;;;;14.45;2.47;;;10.70;53.10;;;;;;4949218;28;20069;-49
2023/01/10 11:24:27;;;;;;;23.38;3.40;;;10.70;53.30;;;;;;4945604;28;20483;-45
2023/01/10 11:26:57;;;;;;;17.45;3.47;;;10.70;53.30;;;;;;4942957;28;20055;-46
2023/01/10 11:29:27;;;;;;;15.60;3.25;;;10.70;53.20;;;;;;4942813;28;20419;-46
2023/01/10 11:31:56;;;;;;;22.00;3.50;;;10.70;52.90;;;;;;4946839;28;20058;-44
2023/01/10 11:34:26;;;;;;;18.02;3.17;;;10.80;52.80;;;;;;4948598;28;20051;-44
2023/01/10 11:36:57;;;;;;;22.08;3.00;;;10.80;52.70;;;;;;4944214;28;20059;-44
2023/01/10 11:39:25;;;;;;;16.85;3.40;;;10.90;52.60;;;;;;4941292;28;20051;-48
2023/01/10 11:41:54;;;;;;;18.55;3.53;;;10.90;52.70;;;;;;4942841;28;20066;-47
2023/01/10 11:44:26;;;;;;;20.15;3.53;;;10.90;52.60;;;;;;4942036;28;20051;-46
2023/01/10 11:46:56;;;;;;;16.63;4.32;;;10.90;52.40;;;;;;4941892;28;20058;-45
2023/01/10 11:49:34;;;;;;;19.20;3.33;;;10.90;52.30;;;;;;4942651;28;20047;-45
2023/01/10 11:52:05;;;;;;;19.95;3.67;;;10.90;51.90;;;;;;4973467;28;20063;-47
2023/01/10 11:54:33;;;;;;;15.25;2.95;;;10.90;51.80;;;;;;4941006;28;20047;-46
2023/01/10 11:57:08;;;;;;;24.15;3.40;;;10.90;52.30;;;;;;4944529;28;20063;-46
2023/01/10 11:59:37;;;;;;;12.65;2.55;;;11.00;51.80;;;;;;4941942;28;20058;-49
2023/01/10 12:02:14;;;;;;;15.82;2.95;;;11.00;51.90;;;;;;4944999;28;21369;-46
2023/01/10 12:15:24;;;;;;;21.27;3.30;;;11.00;51.40;;;;;;4912865;28;20067;-46
2023/01/10 12:17:52;;;;;;;19.02;3.17;;;11.00;51.00;;;;;;4900211;28;20068;-46
2023/01/10 12:20:19;;;;;;;16.67;2.90;;;11.00;51.10;;;;;;4901426;28;20056;-48
2023/01/10 12:22:51;;;;;;;17.33;2.58;;;11.00;51.10;;;;;;4901507;28;20060;-48
2023/01/10 12:25:22;;;;;;;17.55;2.85;;;11.00;51.00;;;;;;4907170;28;20408;-48
2023/01/10 12:27:50;;;;;;;16.00;2.67;;;11.00;51.00;;;;;;4907001;28;20056;-47
2023/01/10 12:30:27;;;;;;;18.45;2.92;;;11.10;51.30;;;;;;4903016;28;20443;-45
2023/01/10 12:33:00;;;;;;;15.20;2.35;;;11.10;51.20;;;;;;4934159;28;20063;-46
2023/01/10 12:35:38;;;;;;;19.67;3.47;;;11.10;51.30;;;;;;4941779;28;20522;-44
2023/01/10 12:38:19;;;;;;;25.98;3.00;;;11.10;51.20;;;;;;4941974;28;20062;-46
2023/01/10 12:40:53;;;;;;;11.43;2.22;;;11.10;51.30;;;;;;4953877;28;20840;-46
2023/01/10 12:46:21;;;;;;;18.58;2.92;;;11.20;51.10;;;;;;4947688;28;20062;-49
2023/01/10 12:48:59;;;;;;;14.50;3.00;;;11.20;51.10;;;;;;4943392;28;20058;-46
2023/01/10 12:51:28;;;;;;;16.48;3.05;;;11.20;51.00;;;;;;4941253;28;20055;-47
2023/01/10 12:54:00;;;;;;;13.73;2.13;;;11.20;50.90;;;;;;4940240;28;20051;-48
2023/01/10 12:56:29;;;;;;;11.50;3.03;;;11.20;50.70;;;;;;4944397;28;20062;-43
2023/01/10 12:59:00;;;;;;;15.85;2.85;;;11.20;50.70;;;;;;4947904;28;21406;-50
2023/01/10 13:01:31;;;;;;;13.57;2.53;;;11.20;50.50;;;;;;4946155;28;20063;-47
2023/01/10 13:04:03;;;;;;;16.02;3.20;;;11.20;50.80;;;;;;4945133;28;20051;-45
2023/01/10 13:06:33;;;;;;;15.15;2.20;;;11.20;50.70;;;;;;4945796;28;20101;-48
2023/01/10 13:09:05;;;;;;;17.48;2.95;;;11.20;50.60;;;;;;4943270;28;20499;-45
2023/01/10 13:11:45;;;;;;;12.10;2.45;;;11.20;50.50;;;;;;4945739;28;20062;-43
2023/01/10 13:14:18;;;;;;;13.07;2.42;;;11.20;50.50;;;;;;4945081;28;20510;-49
2023/01/10 13:16:52;;;;;;;18.85;2.60;;;11.30;50.50;;;;;;4952043;28;20507;-44
2023/01/10 13:19:26;;;;;;;20.27;3.40;;;11.20;50.40;;;;;;4955371;28;20414;-50
2023/01/10 13:22:19;;;;;;;11.07;2.90;;;11.20;50.30;;;;;;4945008;28;20504;-47